createdAt,value
2024-04-30T01:26:00.528Z,101915.47
2024-04-30T01:28:45.256Z,101912.81
2024-04-30T01:31:22.190Z,101910.88
2024-04-30T01:34:00.985Z,101910.28
2024-04-30T01:36:34.316Z,101904.41
2024-04-30T01:39:20.852Z,101912.94
2024-04-30T01:41:49.441Z,101910.63
2024-04-30T01:44:16.633Z,101915.47
2024-04-30T01:46:50.575Z,101908.34
2024-04-30T01:49:18.170Z,101908.78
2024-04-30T01:51:46.879Z,101905.22
2024-04-30T01:54:14.576Z,101906.47
2024-04-30T01:56:43.752Z,101905.19
2024-04-30T02:04:42.411Z,101890.25
2024-04-30T02:07:14.264Z,101895.66
2024-04-30T02:09:42.624Z,101900.59
2024-04-30T02:12:12.863Z,101902.00
2024-04-30T02:14:42.586Z,101903.47
2024-04-30T02:17:17.031Z,101895.19
2024-04-30T02:19:48.387Z,101901.66
2024-04-30T02:22:19.049Z,101911.66
2024-04-30T02:24:49.819Z,101899.81
2024-04-30T02:27:16.859Z,101899.38
2024-04-30T02:29:45.092Z,101900.97
2024-04-30T02:32:30.778Z,101903.63
2024-04-30T02:35:02.086Z,101900.97
2024-04-30T02:37:30.868Z,101893.59
2024-04-30T02:40:00.112Z,101895.69
2024-04-30T02:42:31.083Z,101898.31
2024-04-30T02:45:00.439Z,101906.63
2024-04-30T02:47:30.602Z,101903.50
2024-04-30T02:49:57.830Z,101903.25
2024-04-30T02:52:28.474Z,101904.41
2024-04-30T02:54:55.404Z,101904.97
2024-04-30T02:57:27.170Z,101901.53
2024-04-30T02:59:54.398Z,101902.91
2024-04-30T03:05:02.715Z,101899.81
2024-04-30T03:07:31.371Z,101884.50
2024-04-30T03:10:08.890Z,101893.25
2024-04-30T03:15:25.850Z,101868.59
2024-04-30T03:17:55.334Z,101865.97
2024-04-30T03:23:05.251Z,101875.75
2024-04-30T03:25:33.688Z,101873.09
2024-04-30T03:28:02.939Z,101880.22
2024-04-30T03:30:31.615Z,101876.56
2024-04-30T03:32:59.494Z,101882.66
2024-04-30T03:35:27.970Z,101870.69
2024-04-30T03:37:59.804Z,101872.06
2024-04-30T03:40:26.650Z,101878.16
2024-04-30T03:42:54.621Z,101876.56
2024-04-30T03:48:02.059Z,101863.31
2024-04-30T03:50:28.882Z,101864.13
2024-04-30T03:52:56.826Z,101852.50
2024-04-30T03:55:23.972Z,101855.94
2024-04-30T04:00:35.058Z,101874.47
2024-04-30T04:03:01.934Z,101869.66
2024-04-30T04:05:29.020Z,101863.31
2024-04-30T04:07:55.913Z,101865.97
2024-04-30T04:10:23.238Z,101859.84
2024-04-30T04:13:08.812Z,101853.75
2024-04-30T04:15:37.328Z,101845.59
2024-04-30T04:18:04.450Z,101848.47
2024-04-30T04:20:31.197Z,101858.81
2024-04-30T04:22:58.058Z,101859.06
2024-04-30T04:25:24.856Z,101864.34
2024-04-30T04:27:51.629Z,101861.25
2024-04-30T04:30:18.356Z,101848.22
2024-04-30T04:32:45.223Z,101858.59
2024-04-30T04:35:12.011Z,101848.81
2024-04-30T04:37:38.837Z,101841.44
2024-04-30T04:40:06.291Z,101843.28
2024-04-30T04:42:33.054Z,101852.25
2024-04-30T04:44:59.743Z,101851.22
2024-04-30T04:47:26.548Z,101856.28
2024-04-30T04:49:53.472Z,101844.31
2024-04-30T04:52:20.396Z,101851.22
2024-04-30T04:54:47.114Z,101849.38
2024-04-30T04:57:13.985Z,101844.88
2024-04-30T04:59:40.756Z,101839.59
2024-04-30T05:02:08.460Z,101849.38
2024-04-30T05:04:35.359Z,101846.72
2024-04-30T05:07:02.783Z,101852.03
2024-04-30T05:09:30.096Z,101858.13
2024-04-30T05:11:56.944Z,101861.81
2024-04-30T05:14:24.044Z,101856.50
2024-04-30T05:16:51.058Z,101859.75
2024-04-30T05:19:18.281Z,101866.66
2024-04-30T05:21:45.084Z,101869.88
2024-04-30T05:24:11.900Z,101868.84
2024-04-30T05:26:38.629Z,101860.66
2024-04-30T05:29:05.341Z,101860.41
2024-04-30T05:31:37.404Z,101859.16
2024-04-30T05:34:04.289Z,101858.91
2024-04-30T05:36:31.012Z,101857.88
2024-04-30T05:39:01.107Z,101852.09
2024-04-30T05:41:28.843Z,101856.13
2024-04-30T05:43:55.973Z,101852.44
2024-04-30T05:46:22.771Z,101848.75
2024-04-30T05:48:49.586Z,101865.22
2024-04-30T05:51:16.415Z,101864.97
2024-04-30T05:53:43.183Z,101854.94
2024-04-30T05:56:10.002Z,101842.50
2024-04-30T05:58:36.831Z,101837.69
2024-04-30T06:01:03.817Z,101837.44
2024-04-30T06:03:30.693Z,101843.56
2024-04-30T06:05:57.507Z,101838.50
2024-04-30T06:08:24.240Z,101836.88
2024-04-30T06:10:51.257Z,101827.88
2024-04-30T06:13:18.107Z,101841.72
2024-04-30T06:15:44.890Z,101841.00
2024-04-30T06:18:11.808Z,101832.81
2024-04-30T06:20:40.299Z,101832.81
2024-04-30T06:23:07.128Z,101815.09
2024-04-30T06:25:33.915Z,101821.53
2024-04-30T06:28:00.731Z,101817.03
2024-04-30T06:30:27.528Z,101817.03
2024-04-30T06:32:54.384Z,101822.09
2024-04-30T06:35:21.486Z,101823.47
2024-04-30T06:37:53.707Z,101832.22
2024-04-30T06:40:21.020Z,101837.28
2024-04-30T06:42:48.347Z,101833.38
2024-04-30T06:45:17.564Z,101837.94
2024-04-30T06:47:45.080Z,101845.44
2024-04-30T06:50:12.225Z,101848.41
2024-04-30T06:52:38.994Z,101843.94
2024-04-30T06:55:06.021Z,101839.19
2024-04-30T06:57:32.716Z,101841.59
2024-04-30T06:59:59.567Z,101831.25
2024-04-30T07:02:26.387Z,101824.91
2024-04-30T07:04:53.943Z,101824.91
2024-04-30T07:07:21.366Z,101815.91
2024-04-30T07:09:48.146Z,101823.06
2024-04-30T07:12:15.014Z,101816.72
2024-04-30T07:14:41.753Z,101824.44
2024-04-30T07:17:09.306Z,101831.09
2024-04-30T07:19:36.561Z,101829.00
2024-04-30T07:22:04.361Z,101817.63
2024-04-30T07:24:31.092Z,101821.88
2024-04-30T07:26:57.909Z,101814.25
2024-04-30T07:29:24.781Z,101817.22
2024-04-30T07:31:52.313Z,101823.44
2024-04-30T07:34:19.250Z,101823.25
2024-04-30T07:36:45.969Z,101814.34
2024-04-30T07:39:12.663Z,101814.66
2024-04-30T07:41:39.317Z,101815.78
2024-04-30T07:44:05.989Z,101809.78
2024-04-30T07:46:32.667Z,101806.72
2024-04-30T07:48:59.324Z,101816.34
2024-04-30T07:51:25.974Z,101814.56
2024-04-30T07:53:52.696Z,101819.97
2024-04-30T07:56:19.330Z,101821.16
2024-04-30T07:58:46.035Z,101826.63
2024-04-30T08:01:12.962Z,101820.03
2024-04-30T08:03:39.915Z,101820.63
2024-04-30T08:06:14.081Z,101821.28
2024-04-30T08:08:45.079Z,101820.66
2024-04-30T08:11:11.860Z,101815.97
2024-04-30T08:13:39.104Z,101813.09
2024-04-30T08:16:06.281Z,101810.56
2024-04-30T08:18:32.970Z,101810.72
2024-04-30T08:20:59.797Z,101805.69
2024-04-30T08:23:26.442Z,101808.72
2024-04-30T08:25:53.163Z,101802.19
2024-04-30T08:28:19.847Z,101805.22
2024-04-30T08:30:47.061Z,101811.78
2024-04-30T08:33:14.234Z,101811.13
2024-04-30T08:35:42.397Z,101806.84
2024-04-30T08:38:09.634Z,101808.34
2024-04-30T08:40:37.053Z,101800.97
2024-04-30T08:43:04.245Z,101796.28
2024-04-30T08:45:31.362Z,101798.78
2024-04-30T08:48:00.651Z,101799.06
2024-04-30T08:50:30.284Z,101788.44
2024-04-30T08:52:57.663Z,101789.03
2024-04-30T08:55:24.919Z,101787.94
2024-04-30T08:57:51.738Z,101779.91
2024-04-30T09:00:18.477Z,101787.38
2024-04-30T09:02:53.145Z,101788.75
2024-04-30T09:05:22.769Z,101786.66
2024-04-30T09:07:49.539Z,101787.25
2024-04-30T09:10:16.357Z,101794.25
2024-04-30T09:12:43.044Z,101787.81
2024-04-30T09:15:17.049Z,101788.09
2024-04-30T09:17:44.012Z,101784.94
2024-04-30T09:20:11.228Z,101784.97
2024-04-30T09:22:53.994Z,101791.97
2024-04-30T09:25:32.612Z,101785.59
2024-04-30T09:27:59.876Z,101788.78
2024-04-30T09:30:26.628Z,101781.88
2024-04-30T09:32:53.513Z,101782.41
2024-04-30T09:35:27.537Z,101773.88
2024-04-30T09:38:01.501Z,101775.50
2024-04-30T09:40:32.863Z,101778.97
2024-04-30T09:43:00.899Z,101784.59
2024-04-30T09:45:31.160Z,101782.47
2024-04-30T09:47:58.381Z,101775.28
2024-04-30T09:50:25.619Z,101770.47
2024-04-30T09:52:55.264Z,101768.09
2024-04-30T09:55:25.715Z,101769.69
2024-04-30T09:57:54.445Z,101758.75
2024-04-30T10:00:25.789Z,101758.72
2024-04-30T10:02:56.908Z,101750.47
2024-04-30T10:05:29.704Z,101756.88
2024-04-30T10:07:58.618Z,101755.28
2024-04-30T10:10:29.394Z,101752.88
2024-04-30T10:13:07.672Z,101749.44
2024-04-30T10:15:34.821Z,101747.78
2024-04-30T10:18:01.964Z,101746.44
2024-04-30T10:20:29.890Z,101751.00
2024-04-30T10:22:56.598Z,101751.50
2024-04-30T10:25:24.580Z,101749.31
2024-04-30T10:27:52.404Z,101738.06
2024-04-30T10:30:23.225Z,101738.88
2024-04-30T10:32:50.013Z,101736.44
2024-04-30T10:35:16.859Z,101730.53
2024-04-30T10:37:44.173Z,101730.84
2024-04-30T10:40:17.370Z,101728.16
2024-04-30T10:42:44.311Z,101726.19
2024-04-30T10:45:21.857Z,101724.00
2024-04-30T10:47:48.565Z,101709.00
2024-04-30T10:50:19.024Z,101713.97
2024-04-30T10:52:47.571Z,101705.09
2024-04-30T10:55:15.594Z,101703.94
2024-04-30T10:57:44.122Z,101697.47
2024-04-30T11:00:12.325Z,101703.16
2024-04-30T11:02:39.057Z,101697.56
2024-04-30T11:05:16.105Z,101698.66
2024-04-30T11:07:59.689Z,101695.94
2024-04-30T11:10:30.579Z,101701.00
2024-04-30T11:13:01.546Z,101696.03
2024-04-30T11:15:28.270Z,101685.56
2024-04-30T11:17:55.372Z,101678.06
2024-04-30T11:20:24.621Z,101681.22
2024-04-30T11:22:51.419Z,101674.47
2024-04-30T11:25:20.571Z,101674.94
2024-04-30T11:27:47.277Z,101681.84
2024-04-30T11:30:13.990Z,101685.31
2024-04-30T11:32:40.837Z,101688.50
2024-04-30T11:35:07.720Z,101683.16
2024-04-30T11:37:37.908Z,101683.44
2024-04-30T11:40:05.318Z,101674.84
2024-04-30T11:42:42.394Z,101666.75
2024-04-30T11:45:16.625Z,101666.97
2024-04-30T11:47:43.345Z,101680.03
2024-04-30T11:50:10.353Z,101674.91
2024-04-30T11:52:42.567Z,101668.66
2024-04-30T11:55:10.781Z,101654.44
2024-04-30T11:57:38.091Z,101657.78
2024-04-30T12:00:05.380Z,101651.00
2024-04-30T12:02:32.276Z,101648.56
2024-04-30T12:04:59.255Z,101641.59
2024-04-30T12:07:28.425Z,101634.13
2024-04-30T12:09:55.204Z,101630.78
2024-04-30T12:12:21.893Z,101628.91
2024-04-30T12:14:48.574Z,101615.44
2024-04-30T12:17:15.396Z,101618.22
2024-04-30T12:19:45.441Z,101613.63
2024-04-30T12:22:12.216Z,101621.16
2024-04-30T12:24:40.117Z,101619.44
2024-04-30T12:27:06.801Z,101613.53
2024-04-30T12:29:33.501Z,101612.84
2024-04-30T12:32:00.183Z,101615.53
2024-04-30T12:34:26.844Z,101609.50
2024-04-30T12:36:53.555Z,101611.59
2024-04-30T12:39:20.206Z,101608.41
2024-04-30T12:41:46.826Z,101605.75
2024-04-30T12:44:14.841Z,101599.06
2024-04-30T12:46:42.366Z,101591.16
2024-04-30T12:49:09.086Z,101598.25
2024-04-30T12:51:35.756Z,101590.59
2024-04-30T12:54:02.487Z,101597.97
2024-04-30T12:56:33.032Z,101601.16
2024-04-30T12:59:00.053Z,101598.97
2024-04-30T13:01:27.035Z,101588.63
2024-04-30T13:03:59.653Z,101592.19
2024-04-30T13:06:26.491Z,101577.91
2024-04-30T13:08:53.585Z,101574.06
2024-04-30T13:11:20.517Z,101570.69
2024-04-30T13:13:47.575Z,101559.88
2024-04-30T13:16:14.520Z,101564.06
2024-04-30T13:18:41.802Z,101554.91
2024-04-30T13:21:14.459Z,101560.47
2024-04-30T13:23:41.432Z,101561.53
2024-04-30T13:26:08.427Z,101555.56
2024-04-30T13:28:36.836Z,101554.66
2024-04-30T13:31:03.824Z,101552.09
2024-04-30T13:33:31.061Z,101547.94
2024-04-30T13:36:01.329Z,101547.53
2024-04-30T13:38:28.092Z,101544.78
2024-04-30T13:40:54.699Z,101537.00
2024-04-30T13:43:21.442Z,101534.13
2024-04-30T13:45:49.156Z,101523.38
2024-04-30T13:48:15.924Z,101528.53
2024-04-30T13:50:42.591Z,101526.44
2024-04-30T13:53:09.499Z,101529.72
2024-04-30T13:55:36.376Z,101532.31
2024-04-30T13:58:03.116Z,101524.25
2024-04-30T14:00:29.764Z,101521.56
2024-04-30T14:02:56.739Z,101528.44
2024-04-30T14:05:25.461Z,101519.22
2024-04-30T14:07:53.833Z,101515.34
2024-04-30T14:10:20.583Z,101517.13
2024-04-30T14:12:49.242Z,101514.94
2024-04-30T14:15:16.469Z,101509.28
2024-04-30T14:17:43.186Z,101499.66
2024-04-30T14:20:10.139Z,101500.59
2024-04-30T14:22:36.834Z,101492.69
2024-04-30T14:25:03.612Z,101487.22
2024-04-30T14:27:30.410Z,101489.50
2024-04-30T14:29:57.056Z,101489.22
2024-04-30T14:32:24.944Z,101481.94
2024-04-30T14:34:51.715Z,101484.13
2024-04-30T14:37:18.656Z,101488.41
2024-04-30T14:39:45.414Z,101497.47
2024-04-30T14:42:12.456Z,101493.69
2024-04-30T14:44:39.335Z,101488.31
2024-04-30T14:47:05.957Z,101489.91
2024-04-30T14:49:32.658Z,101487.50
2024-04-30T14:51:59.312Z,101479.75
2024-04-30T14:54:26.034Z,101476.56
2024-04-30T14:56:55.230Z,101469.63
2024-04-30T14:59:23.128Z,101473.91
2024-04-30T15:01:49.890Z,101464.56
2024-04-30T15:04:16.769Z,101464.84
2024-04-30T15:06:43.511Z,101463.94
2024-04-30T15:09:10.794Z,101463.34
2024-04-30T15:11:37.730Z,101455.91
2024-04-30T15:14:05.376Z,101458.28
2024-04-30T15:16:32.198Z,101458.28
2024-04-30T15:18:58.895Z,101458.97
2024-04-30T15:21:25.538Z,101448.06
2024-04-30T15:23:52.182Z,101449.91
2024-04-30T15:26:18.865Z,101454.69
2024-04-30T15:28:45.563Z,101452.53
2024-04-30T15:31:19.068Z,101448.00
2024-04-30T15:33:46.343Z,101450.91
2024-04-30T15:36:13.158Z,101449.91
2024-04-30T15:38:40.228Z,101449.91
2024-04-30T15:41:07.112Z,101438.97
2024-04-30T15:43:36.272Z,101437.69
2024-04-30T15:46:04.047Z,101443.97
2024-04-30T15:48:30.895Z,101435.25
2024-04-30T15:51:04.215Z,101432.41
2024-04-30T15:53:30.977Z,101433.50
2024-04-30T15:56:09.141Z,101427.94
2024-04-30T15:58:41.282Z,101429.16
2024-04-30T16:01:08.124Z,101428.47
2024-04-30T16:03:34.888Z,101425.28
2024-04-30T16:06:04.788Z,101430.78
2024-04-30T16:08:31.399Z,101434.25
2024-04-30T16:11:09.166Z,101439.63
2024-04-30T16:13:37.712Z,101429.97
2024-04-30T16:16:12.370Z,101428.59
2024-04-30T16:18:44.473Z,101428.88
2024-04-30T16:21:11.655Z,101420.03
2024-04-30T16:23:39.064Z,101422.41
2024-04-30T16:26:06.779Z,101428.88
2024-04-30T16:28:34.355Z,101424.13
2024-04-30T16:31:03.561Z,101426.31
2024-04-30T16:33:30.704Z,101417.34
2024-04-30T16:35:57.470Z,101412.28
2024-04-30T16:38:24.420Z,101404.34
2024-04-30T16:40:51.119Z,101408.59
2024-04-30T16:43:17.718Z,101400.25
2024-04-30T16:45:44.399Z,101395.97
2024-04-30T16:48:11.174Z,101399.47
2024-04-30T16:50:37.943Z,101394.56
2024-04-30T16:53:04.820Z,101396.47
2024-04-30T16:55:31.469Z,101398.66
2024-04-30T16:57:59.804Z,101388.22
2024-04-30T17:00:26.536Z,101386.16
2024-04-30T17:02:53.321Z,101385.69
2024-04-30T17:05:19.979Z,101372.06
2024-04-30T17:07:46.672Z,101377.44
2024-04-30T17:10:13.299Z,101367.97
2024-04-30T17:12:40.065Z,101366.88
2024-04-30T17:15:07.082Z,101359.31
2024-04-30T17:17:33.703Z,101358.53
2024-04-30T17:20:03.642Z,101361.50
2024-04-30T17:22:34.202Z,101362.63
2024-04-30T17:25:00.964Z,101360.22
2024-04-30T17:27:29.266Z,101361.63
2024-04-30T17:29:55.958Z,101361.94
2024-04-30T17:32:23.270Z,101356.50
2024-04-30T17:34:50.091Z,101360.06
2024-04-30T17:37:18.038Z,101363.13
2024-04-30T17:39:44.804Z,101365.63
2024-04-30T17:42:11.574Z,101350.97
2024-04-30T17:44:38.653Z,101360.09
2024-04-30T17:47:06.690Z,101354.84
2024-04-30T17:49:33.369Z,101345.81
2024-04-30T17:52:00.185Z,101351.56
2024-04-30T17:54:26.923Z,101349.91
2024-04-30T17:56:53.778Z,101355.38
2024-04-30T17:59:20.783Z,101355.59
2024-04-30T18:01:49.159Z,101353.00
2024-04-30T18:04:18.103Z,101357.88
2024-04-30T18:06:45.179Z,101349.41
2024-04-30T18:09:11.945Z,101354.94
2024-04-30T18:11:39.615Z,101362.97
2024-04-30T18:14:06.351Z,101357.72
2024-04-30T18:16:33.054Z,101359.09
2024-04-30T18:18:59.892Z,101360.88
2024-04-30T18:21:34.026Z,101360.59
2024-04-30T18:24:03.693Z,101372.19
2024-04-30T18:26:30.599Z,101366.78
2024-04-30T18:28:57.616Z,101358.44
2024-04-30T18:31:28.486Z,101361.34
2024-04-30T18:33:55.621Z,101364.09
2024-04-30T18:36:24.054Z,101355.31
2024-04-30T18:38:50.872Z,101361.53
2024-04-30T18:41:24.941Z,101366.53
2024-04-30T18:43:56.699Z,101361.75
2024-04-30T18:46:23.344Z,101364.63
2024-04-30T18:48:50.212Z,101360.19
2024-04-30T18:51:17.966Z,101365.53
2024-04-30T18:53:44.720Z,101353.59
2024-04-30T18:56:16.863Z,101354.97
2024-04-30T18:58:47.163Z,101365.94
2024-04-30T19:01:14.969Z,101357.72
2024-04-30T19:03:42.071Z,101353.75
2024-04-30T19:06:10.061Z,101354.06
2024-04-30T19:08:37.517Z,101360.25
2024-04-30T19:11:05.608Z,101364.34
2024-04-30T19:13:32.961Z,101369.00
2024-04-30T19:16:04.360Z,101353.53
2024-04-30T19:18:32.652Z,101361.91
2024-04-30T19:21:01.951Z,101363.53
2024-04-30T19:23:32.815Z,101356.88
2024-04-30T19:26:00.964Z,101357.78
2024-04-30T19:28:28.507Z,101362.97
2024-04-30T19:30:55.198Z,101365.66
2024-04-30T19:33:21.995Z,101361.91
2024-04-30T19:35:48.753Z,101366.53
2024-04-30T19:38:17.455Z,101364.94
2024-04-30T19:40:44.959Z,101361.28
2024-04-30T19:43:14.144Z,101363.50
2024-04-30T19:45:41.513Z,101367.22
2024-04-30T19:48:10.649Z,101364.03
2024-04-30T19:50:38.416Z,101368.31
2024-04-30T19:53:05.489Z,101357.09
2024-04-30T19:55:32.113Z,101365.63
2024-04-30T19:57:58.832Z,101365.41
2024-04-30T20:00:25.600Z,101364.97
2024-04-30T20:02:52.410Z,101361.03
2024-04-30T20:05:19.102Z,101364.22
2024-04-30T20:07:45.759Z,101362.31
2024-04-30T20:10:12.668Z,101369.50
2024-04-30T20:12:40.248Z,101372.69
2024-04-30T20:15:07.502Z,101373.25
2024-04-30T20:17:34.193Z,101368.50
2024-04-30T20:20:00.857Z,101364.53
2024-04-30T20:22:27.523Z,101362.16
2024-04-30T20:24:54.269Z,101378.13
2024-04-30T20:27:20.978Z,101362.41
2024-04-30T20:29:47.679Z,101369.06
2024-04-30T20:32:14.386Z,101361.34
2024-04-30T20:34:41.212Z,101370.16
2024-04-30T20:37:08.120Z,101367.22
2024-04-30T20:39:36.974Z,101362.97
2024-04-30T20:42:03.954Z,101361.91
2024-04-30T20:44:30.610Z,101361.69
2024-04-30T20:46:57.221Z,101355.84
2024-04-30T20:49:23.909Z,101358.22
2024-04-30T20:51:50.618Z,101355.56
2024-04-30T20:54:17.311Z,101353.44
2024-04-30T20:56:43.966Z,101345.50
2024-04-30T20:59:11.020Z,101354.81
2024-04-30T21:01:37.759Z,101353.97
2024-04-30T21:04:04.910Z,101358.78
2024-04-30T21:06:31.647Z,101362.50
2024-04-30T21:08:58.386Z,101353.97
2024-04-30T21:11:24.982Z,101344.66
2024-04-30T21:13:51.686Z,101352.66
2024-04-30T21:16:19.875Z,101348.13
2024-04-30T21:18:47.116Z,101357.19
2024-04-30T21:21:13.920Z,101350.00
2024-04-30T21:23:43.425Z,101352.91
2024-04-30T21:26:11.128Z,101340.41
2024-04-30T21:28:38.251Z,101343.38
2024-04-30T21:31:05.203Z,101339.63
2024-04-30T21:33:32.270Z,101336.97
2024-04-30T21:35:59.266Z,101331.38
2024-04-30T21:38:25.903Z,101333.78
2024-04-30T21:40:53.242Z,101335.09
2024-04-30T21:43:19.991Z,101338.00
2024-04-30T21:45:46.676Z,101334.81
2024-04-30T21:48:13.476Z,101335.88
2024-04-30T21:50:40.200Z,101332.16
2024-04-30T21:53:06.867Z,101331.06
2024-04-30T21:55:33.525Z,101323.91
2024-04-30T21:58:00.260Z,101331.63
2024-04-30T22:00:27.026Z,101325.25
2024-04-30T22:02:57.718Z,101333.25
2024-04-30T22:05:29.080Z,101342.03
2024-04-30T22:07:55.722Z,101357.72
2024-04-30T22:10:24.044Z,101363.06
2024-04-30T22:12:50.794Z,101363.84
2024-04-30T22:15:19.008Z,101358.25
2024-04-30T22:17:46.059Z,101358.78
2024-04-30T22:20:13.069Z,101350.81
2024-04-30T22:22:39.694Z,101343.88
2024-04-30T22:25:06.550Z,101346.81
2024-04-30T22:27:33.395Z,101338.81
2024-04-30T22:30:08.898Z,101338.03
2024-04-30T22:32:44.362Z,101319.13
2024-04-30T22:35:11.212Z,101308.75
2024-04-30T22:37:37.907Z,101298.66
2024-04-30T22:40:05.167Z,101295.72
2024-04-30T22:42:32.008Z,101301.84
2024-04-30T22:44:58.788Z,101292.25
2024-04-30T22:47:25.611Z,101279.50
2024-04-30T22:49:52.295Z,101279.50
2024-04-30T22:52:18.903Z,101290.69
2024-04-30T22:54:50.590Z,101292.28
2024-04-30T22:57:17.729Z,101281.09
2024-04-30T22:59:44.373Z,101280.28
2024-04-30T23:02:11.159Z,101285.34
2024-04-30T23:04:37.969Z,101285.88
2024-04-30T23:07:05.027Z,101282.69
2024-04-30T23:09:31.820Z,101279.75
2024-04-30T23:11:58.624Z,101287.22
2024-04-30T23:14:25.259Z,101290.41
2024-04-30T23:16:51.916Z,101290.94
2024-04-30T23:19:18.761Z,101295.47
2024-04-30T23:21:45.752Z,101287.75
2024-04-30T23:24:12.547Z,101286.69
2024-04-30T23:26:39.251Z,101293.34
2024-04-30T23:29:05.874Z,101291.19
2024-04-30T23:31:32.626Z,101285.88
2024-04-30T23:33:59.480Z,101278.97
2024-04-30T23:36:26.188Z,101276.56
2024-04-30T23:38:52.836Z,101272.88
2024-04-30T23:41:19.596Z,101273.63
2024-04-30T23:43:46.316Z,101266.72
2024-04-30T23:46:13.006Z,101262.44
2024-04-30T23:48:39.726Z,101254.75
2024-04-30T23:51:13.769Z,101244.09
2024-04-30T23:53:44.366Z,101244.91
2024-04-30T23:56:12.889Z,101239.06
2024-04-30T23:58:39.936Z,101238.00
